createdAt,value
2019-02-12T00:00:23.515Z,4.65
2019-02-12T00:02:55.216Z,4.35
2019-02-12T00:05:24.069Z,4.15
2019-02-12T00:07:52.100Z,4.78
2019-02-12T00:10:21.414Z,4.37
2019-02-12T00:12:50.002Z,4.50
2019-02-12T00:15:16.453Z,3.72
2019-02-12T00:17:43.025Z,4.75
2019-02-12T00:20:09.468Z,4.05
2019-02-12T00:22:36.047Z,3.75
2019-02-12T00:25:06.028Z,4.45
2019-02-12T00:27:39.843Z,3.90
2019-02-12T00:30:09.388Z,5.17
2019-02-12T00:32:36.036Z,3.62
2019-02-12T00:35:04.216Z,5.55
2019-02-12T00:37:39.284Z,5.20
2019-02-12T00:40:07.954Z,5.37
2019-02-12T00:42:34.608Z,5.42
2019-02-12T00:45:01.084Z,5.25
2019-02-12T00:47:27.534Z,4.03
2019-02-12T00:49:53.981Z,5.47
2019-02-12T00:52:20.577Z,5.08
2019-02-12T00:54:47.252Z,4.42
2019-02-12T00:57:13.705Z,5.37
2019-02-12T00:59:40.365Z,4.20
2019-02-12T01:02:06.843Z,4.80
2019-02-12T01:04:35.809Z,4.85
2019-02-12T01:07:02.481Z,4.50
2019-02-12T01:09:29.046Z,6.30
2019-02-12T01:11:55.649Z,5.85
2019-02-12T01:14:22.192Z,4.30
2019-02-12T01:16:48.663Z,4.90
2019-02-12T01:19:18.080Z,3.67
2019-02-12T01:21:44.768Z,4.12
2019-02-12T01:24:11.336Z,5.10
2019-02-12T01:26:37.791Z,4.72
2019-02-12T01:29:04.281Z,4.97
2019-02-12T01:31:30.839Z,5.35
2019-02-12T01:33:57.318Z,4.10
2019-02-12T01:36:23.855Z,4.45
2019-02-12T01:38:50.591Z,4.42
2019-02-12T01:41:16.950Z,4.97
2019-02-12T01:43:43.519Z,4.35
2019-02-12T01:46:10.402Z,5.03
2019-02-12T01:48:36.873Z,4.08
2019-02-12T01:51:03.725Z,5.67
2019-02-12T01:53:30.304Z,4.90
2019-02-12T01:55:57.045Z,5.70
2019-02-12T01:58:23.621Z,6.40
2019-02-12T02:00:50.082Z,5.15
2019-02-12T02:03:16.535Z,6.97
2019-02-12T02:05:42.896Z,6.20
2019-02-12T02:08:09.448Z,7.05
2019-02-12T02:10:36.133Z,5.83
2019-02-12T02:13:02.580Z,7.20
2019-02-12T02:15:29.148Z,6.70
2019-02-12T02:17:55.868Z,5.80
2019-02-12T02:20:22.693Z,5.90
2019-02-12T02:22:49.407Z,6.50
2019-02-12T02:25:16.144Z,7.67
2019-02-12T02:27:42.679Z,6.95
2019-02-12T02:30:11.433Z,8.45
2019-02-12T02:32:37.876Z,7.10
2019-02-12T02:35:04.843Z,8.70
2019-02-12T02:37:31.202Z,6.33
2019-02-12T02:39:57.835Z,6.87
2019-02-12T02:42:26.425Z,10.45
2019-02-12T02:44:53.031Z,6.70
2019-02-12T02:47:19.492Z,7.20
2019-02-12T02:49:45.948Z,5.92
2019-02-12T02:52:14.432Z,6.72
2019-02-12T02:54:40.785Z,6.40
2019-02-12T02:57:07.260Z,7.70
2019-02-12T02:59:33.952Z,6.03
2019-02-12T03:02:02.545Z,8.15
2019-02-12T03:04:29.100Z,8.30
2019-02-12T03:06:55.828Z,6.10
2019-02-12T03:09:22.185Z,6.80
2019-02-12T03:11:48.652Z,6.25
2019-02-12T03:14:15.206Z,7.53
2019-02-12T03:16:41.676Z,6.20
2019-02-12T03:19:08.116Z,7.72
2019-02-12T03:21:34.674Z,6.67
2019-02-12T03:24:01.149Z,6.60
2019-02-12T03:26:27.602Z,6.95
2019-02-12T03:28:54.342Z,6.45
2019-02-12T03:31:20.904Z,7.90
2019-02-12T03:33:47.371Z,7.45
2019-02-12T03:36:13.806Z,7.55
2019-02-12T03:38:40.550Z,7.22
2019-02-12T03:41:07.280Z,7.53
2019-02-12T03:43:33.759Z,6.60
2019-02-12T03:46:00.210Z,8.43
2019-02-12T03:48:26.681Z,7.75
2019-02-12T03:50:53.244Z,7.55
2019-02-12T03:53:19.624Z,8.78
2019-02-12T03:55:46.189Z,7.83
2019-02-12T03:58:13.030Z,8.25
2019-02-12T04:00:39.962Z,8.60
2019-02-12T04:03:07.008Z,7.08
2019-02-12T04:05:35.069Z,8.03
2019-02-12T04:08:01.645Z,7.95
2019-02-12T04:10:28.209Z,7.05
2019-02-12T04:12:54.856Z,7.10
2019-02-12T04:15:21.523Z,8.00
2019-02-12T04:17:47.873Z,7.80
2019-02-12T04:20:14.445Z,7.28
2019-02-12T04:22:40.996Z,7.95
2019-02-12T04:25:07.637Z,8.13
2019-02-12T04:27:34.212Z,7.55
2019-02-12T04:30:00.668Z,7.60
2019-02-12T04:32:27.135Z,7.60
2019-02-12T04:34:53.668Z,7.08
2019-02-12T04:37:20.044Z,6.22
2019-02-12T04:39:46.491Z,6.90
2019-02-12T04:42:13.076Z,7.08
2019-02-12T04:44:39.775Z,7.67
2019-02-12T04:47:06.163Z,6.80
2019-02-12T04:49:32.999Z,8.23
2019-02-12T04:51:59.461Z,7.67
2019-02-12T04:54:26.912Z,10.40
2019-02-12T04:56:53.412Z,10.05
2019-02-12T04:59:19.971Z,9.00
2019-02-12T05:01:46.522Z,7.65
2019-02-12T05:04:12.975Z,7.87
2019-02-12T05:06:39.424Z,8.88
2019-02-12T05:09:11.230Z,8.53
2019-02-12T05:11:38.571Z,8.95
2019-02-12T05:14:05.153Z,8.95
2019-02-12T05:16:31.599Z,8.13
2019-02-12T05:18:58.060Z,9.83
2019-02-12T05:21:24.601Z,8.00
2019-02-12T05:23:51.269Z,8.95
2019-02-12T05:26:18.467Z,8.53
2019-02-12T05:28:44.943Z,9.30
2019-02-12T05:31:11.384Z,10.05
2019-02-12T05:33:37.841Z,8.28
2019-02-12T05:36:04.588Z,8.53
2019-02-12T05:38:31.045Z,8.80
2019-02-12T05:40:57.524Z,8.55
2019-02-12T05:43:23.977Z,9.45
2019-02-12T05:45:50.732Z,8.65
2019-02-12T05:48:17.086Z,9.53
2019-02-12T05:50:43.584Z,11.05
2019-02-12T05:53:10.019Z,9.78
2019-02-12T05:55:36.520Z,8.80
2019-02-12T05:58:02.971Z,9.85
2019-02-12T06:00:31.316Z,10.78
2019-02-12T06:02:57.777Z,9.95
2019-02-12T06:05:25.825Z,12.43
2019-02-12T06:07:52.393Z,9.25
2019-02-12T06:10:18.848Z,10.30
2019-02-12T06:12:45.342Z,10.58
2019-02-12T06:15:11.893Z,8.70
2019-02-12T06:17:38.364Z,9.88
2019-02-12T06:20:06.213Z,9.20
2019-02-12T06:22:32.779Z,10.08
2019-02-12T06:24:59.326Z,9.93
2019-02-12T06:27:25.764Z,9.50
2019-02-12T06:29:52.633Z,10.85
2019-02-12T06:32:19.095Z,10.78
2019-02-12T06:34:45.557Z,10.93
2019-02-12T06:37:12.008Z,10.25
2019-02-12T06:39:38.489Z,11.53
2019-02-12T06:42:04.945Z,11.00
2019-02-12T06:44:31.602Z,11.85
2019-02-12T06:46:58.173Z,11.70
2019-02-12T06:49:25.032Z,11.57
2019-02-12T06:51:51.651Z,10.85
2019-02-12T06:54:18.385Z,11.38
2019-02-12T06:56:44.834Z,11.88
2019-02-12T06:59:12.021Z,10.55
2019-02-12T07:01:38.464Z,11.00
2019-02-12T07:04:05.050Z,10.65
2019-02-12T07:06:50.425Z,10.45
2019-02-12T07:09:23.669Z,12.37
2019-02-12T07:12:16.500Z,11.12
2019-02-12T07:14:49.844Z,10.93
2019-02-12T07:17:45.866Z,10.70
2019-02-12T07:20:25.110Z,11.95
2019-02-12T07:23:01.324Z,11.50
2019-02-12T07:25:37.356Z,12.63
2019-02-12T07:28:19.502Z,11.10
2019-02-12T07:30:52.844Z,12.07
2019-02-12T07:33:26.053Z,11.75
2019-02-12T07:36:08.172Z,12.03
2019-02-12T07:38:49.800Z,11.28
2019-02-12T07:41:28.861Z,11.97
2019-02-12T07:44:08.257Z,11.20
2019-02-12T07:46:38.829Z,11.38
2019-02-12T07:49:09.089Z,12.60
2019-02-12T07:51:48.506Z,11.70
2019-02-12T07:54:24.914Z,11.18
2019-02-12T07:57:14.479Z,10.60
2019-02-12T07:59:44.851Z,9.60
2019-02-12T08:02:15.214Z,12.10
2019-02-12T08:05:07.948Z,11.33
2019-02-12T08:07:50.313Z,11.75
2019-02-12T08:10:32.396Z,10.45
2019-02-12T08:13:14.626Z,11.50
2019-02-12T08:15:57.003Z,11.60
2019-02-12T08:18:27.640Z,10.80
2019-02-12T08:21:01.144Z,13.35
2019-02-12T08:24:07.014Z,11.85
2019-02-12T08:26:43.344Z,10.35
2019-02-12T08:29:25.497Z,12.70
2019-02-12T08:32:01.515Z,10.98
2019-02-12T08:34:48.210Z,11.80
2019-02-12T08:37:42.472Z,11.53
2019-02-12T08:40:27.962Z,11.45
2019-02-12T08:43:07.081Z,10.82
2019-02-12T08:45:52.402Z,12.25
2019-02-12T08:48:25.407Z,10.35
2019-02-12T08:50:58.432Z,11.10
2019-02-12T08:53:37.932Z,10.30
2019-02-12T08:56:26.393Z,10.63
2019-02-12T08:58:59.398Z,11.48
2019-02-12T09:01:46.425Z,11.45
2019-02-12T09:04:16.768Z,11.95
2019-02-12T09:06:47.049Z,12.80
2019-02-12T09:09:43.101Z,11.50
2019-02-12T09:12:16.437Z,14.20
2019-02-12T09:15:09.188Z,11.78
2019-02-12T09:17:45.865Z,12.10
2019-02-12T09:20:32.122Z,12.00
2019-02-12T09:23:08.803Z,10.20
2019-02-12T09:25:39.324Z,10.93
2019-02-12T09:28:18.377Z,10.53
2019-02-12T09:30:51.633Z,9.78
2019-02-12T09:33:53.352Z,12.23
2019-02-12T09:36:32.312Z,10.60
2019-02-12T09:39:11.750Z,11.10
2019-02-12T09:41:51.149Z,9.90
2019-02-12T09:44:42.916Z,9.55
2019-02-12T09:47:16.014Z,9.40
2019-02-12T09:49:58.140Z,8.75
2019-02-12T09:52:40.262Z,11.40
2019-02-12T09:55:39.704Z,9.28
2019-02-12T09:58:29.753Z,8.20
2019-02-12T10:01:10.095Z,9.60
2019-02-12T10:03:40.401Z,8.45
2019-02-12T10:06:10.677Z,8.38
2019-02-12T10:08:59.088Z,8.73
2019-02-12T10:11:41.464Z,8.85
2019-02-12T10:14:28.031Z,9.48
2019-02-12T10:16:58.295Z,9.83
2019-02-12T10:19:34.681Z,8.15
2019-02-12T10:22:17.435Z,7.30
2019-02-12T10:24:50.187Z,7.95
2019-02-12T10:27:39.870Z,7.12
2019-02-12T10:30:42.044Z,6.55
2019-02-12T10:33:08.516Z,7.55
2019-02-12T10:35:35.065Z,7.03
2019-02-12T10:38:01.551Z,7.75
2019-02-12T10:40:27.983Z,9.08
2019-02-12T10:42:54.338Z,7.47
2019-02-12T10:45:21.046Z,7.72
2019-02-12T10:47:47.525Z,6.92
2019-02-12T10:50:13.948Z,8.03
2019-02-12T10:52:40.308Z,7.17
2019-02-12T10:55:06.977Z,8.13
2019-02-12T10:57:33.702Z,7.53
2019-02-12T11:00:00.397Z,7.97
2019-02-12T11:02:27.542Z,7.37
2019-02-12T11:04:54.134Z,7.53
2019-02-12T11:07:20.580Z,8.60
2019-02-12T11:09:47.207Z,7.80
2019-02-12T11:12:13.555Z,8.38
2019-02-12T11:14:39.915Z,7.37
2019-02-12T11:17:08.379Z,8.53
2019-02-12T11:19:34.732Z,9.45
2019-02-12T11:22:01.217Z,7.47
2019-02-12T11:24:35.251Z,7.70
2019-02-12T11:26:55.937Z,8.28
2019-02-12T11:29:22.664Z,8.85
2019-02-12T11:31:49.235Z,9.05
2019-02-12T11:34:15.685Z,9.35
2019-02-12T11:36:42.360Z,6.85
2019-02-12T11:39:08.915Z,7.95
2019-02-12T11:41:36.344Z,6.87
2019-02-12T11:44:03.036Z,7.35
2019-02-12T11:46:29.390Z,8.40
2019-02-12T11:48:55.871Z,5.95
2019-02-12T11:51:22.511Z,6.72
2019-02-12T11:53:49.195Z,5.08
2019-02-12T11:56:15.645Z,7.50
2019-02-12T11:58:42.105Z,6.30
2019-02-12T12:01:10.460Z,6.05
2019-02-12T12:03:36.936Z,5.90
2019-02-12T12:06:03.504Z,5.85
2019-02-12T12:08:30.086Z,5.78
2019-02-12T12:10:56.633Z,5.10
2019-02-12T12:13:23.176Z,5.30
2019-02-12T12:15:49.858Z,5.83
2019-02-12T12:18:16.518Z,6.20
2019-02-12T12:20:42.987Z,4.97
2019-02-12T12:23:09.749Z,5.12
2019-02-12T12:25:36.220Z,5.90
2019-02-12T12:28:02.862Z,6.05
2019-02-12T12:30:29.430Z,5.25
2019-02-12T12:32:56.527Z,4.67
2019-02-12T12:35:23.075Z,6.12
2019-02-12T12:37:49.515Z,4.60
2019-02-12T12:40:15.992Z,4.75
2019-02-12T12:42:42.427Z,5.55
2019-02-12T12:45:10.933Z,5.00
2019-02-12T12:47:37.750Z,4.20
2019-02-12T12:50:09.973Z,5.10
2019-02-12T12:52:36.436Z,4.00
2019-02-12T12:55:04.824Z,4.85
2019-02-12T12:57:31.270Z,4.97
2019-02-12T12:59:57.703Z,5.42
2019-02-12T13:02:24.194Z,3.80
2019-02-12T13:04:50.628Z,3.80
2019-02-12T13:07:17.204Z,3.92
2019-02-12T13:09:43.748Z,5.15
2019-02-12T13:12:10.490Z,3.80
2019-02-12T13:14:36.957Z,4.90
2019-02-12T13:17:03.504Z,3.70
2019-02-12T13:19:30.001Z,3.70
2019-02-12T13:21:56.566Z,3.92
2019-02-12T13:24:23.041Z,4.15
2019-02-12T13:26:49.597Z,3.87
2019-02-12T13:29:16.096Z,3.35
2019-02-12T13:31:42.636Z,3.00
2019-02-12T13:34:09.325Z,4.25
2019-02-12T13:36:35.988Z,3.67
2019-02-12T13:39:04.427Z,3.15
2019-02-12T13:41:30.917Z,2.70
2019-02-12T13:43:57.380Z,3.15
2019-02-12T13:46:23.993Z,2.67
2019-02-12T13:48:50.567Z,2.90
2019-02-12T13:51:17.138Z,3.52
2019-02-12T13:53:43.708Z,3.30
2019-02-12T13:56:10.277Z,3.95
2019-02-12T13:58:36.828Z,3.65
2019-02-12T14:01:03.412Z,3.77
2019-02-12T14:03:29.774Z,3.80
2019-02-12T14:05:56.261Z,2.90
2019-02-12T14:08:23.078Z,2.17
2019-02-12T14:10:49.565Z,2.85
2019-02-12T14:13:16.009Z,3.30
2019-02-12T14:15:42.480Z,3.05
2019-02-12T14:18:09.044Z,3.65
2019-02-12T14:20:35.545Z,2.70
2019-02-12T14:23:02.127Z,2.35
2019-02-12T14:25:28.586Z,2.85
2019-02-12T14:27:55.066Z,2.37
2019-02-12T14:30:21.917Z,3.80
2019-02-12T14:32:48.383Z,3.95
2019-02-12T14:35:14.922Z,4.00
2019-02-12T14:37:41.619Z,3.40
2019-02-12T14:40:10.597Z,3.47
2019-02-12T14:42:37.160Z,3.75
2019-02-12T14:45:13.196Z,3.20
2019-02-12T14:47:40.080Z,1.75
2019-02-12T14:50:09.827Z,2.83
2019-02-12T14:52:36.312Z,3.95
2019-02-12T14:55:03.369Z,3.62
2019-02-12T14:57:29.841Z,3.17
2019-02-12T14:59:56.412Z,3.30
2019-02-12T15:02:23.119Z,3.25
2019-02-12T15:04:49.668Z,3.33
2019-02-12T15:07:16.384Z,3.40
2019-02-12T15:09:42.885Z,3.55
2019-02-12T15:12:09.430Z,4.83
2019-02-12T15:14:35.803Z,3.12
2019-02-12T15:17:02.615Z,3.87
2019-02-12T15:19:29.094Z,4.20
2019-02-12T15:21:55.640Z,4.37
2019-02-12T15:24:22.123Z,4.75
2019-02-12T15:26:48.736Z,3.85
2019-02-12T15:29:15.189Z,3.62
2019-02-12T15:31:41.647Z,3.10
2019-02-12T15:34:08.111Z,4.25
2019-02-12T15:36:34.456Z,4.62
2019-02-12T15:39:01.043Z,5.28
2019-02-12T15:41:27.620Z,4.00
2019-02-12T15:43:54.187Z,5.03
2019-02-12T15:46:20.762Z,4.67
2019-02-12T15:48:47.333Z,4.55
2019-02-12T15:51:13.912Z,3.77
2019-02-12T15:53:40.381Z,4.70
2019-02-12T15:56:06.945Z,4.92
2019-02-12T15:58:33.390Z,6.00
2019-02-12T16:01:01.837Z,5.22
2019-02-12T16:03:28.219Z,5.50
2019-02-12T16:05:55.156Z,4.55
2019-02-12T16:08:22.856Z,5.42
2019-02-12T16:10:49.568Z,5.10
2019-02-12T16:13:16.016Z,3.95
2019-02-12T16:15:43.527Z,5.45
2019-02-12T16:18:10.741Z,5.40
2019-02-12T16:20:37.217Z,5.20
2019-02-12T16:23:03.885Z,5.60
2019-02-12T16:25:30.497Z,5.95
2019-02-12T16:27:57.074Z,6.28
2019-02-12T16:30:23.820Z,5.60
2019-02-12T16:32:50.357Z,6.12
2019-02-12T16:35:17.093Z,6.35
2019-02-12T16:37:44.137Z,6.30
2019-02-12T16:40:12.489Z,5.87
2019-02-12T16:42:39.169Z,6.47
2019-02-12T16:45:12.079Z,5.62
2019-02-12T16:47:38.573Z,6.03
2019-02-12T16:50:06.645Z,6.22
2019-02-12T16:52:33.189Z,5.95
2019-02-12T16:54:59.568Z,6.90
2019-02-12T16:57:26.500Z,6.83
2019-02-12T16:59:53.240Z,6.97
2019-02-12T17:02:19.703Z,6.95
2019-02-12T17:04:46.272Z,7.50
2019-02-12T17:07:12.846Z,6.60
2019-02-12T17:09:39.415Z,7.47
2019-02-12T17:12:05.856Z,7.50
2019-02-12T17:14:32.609Z,7.08
2019-02-12T17:16:59.110Z,7.33
2019-02-12T17:19:25.739Z,6.45
2019-02-12T17:21:52.176Z,6.80
2019-02-12T17:24:18.560Z,8.33
2019-02-12T17:26:45.008Z,6.97
2019-02-12T17:29:11.592Z,7.12
2019-02-12T17:31:38.518Z,6.95
2019-02-12T17:34:05.017Z,7.87
2019-02-12T17:36:31.462Z,8.35
2019-02-12T17:38:58.025Z,7.80
2019-02-12T17:41:24.765Z,7.17
2019-02-12T17:43:51.240Z,7.22
2019-02-12T17:46:17.681Z,7.40
2019-02-12T17:48:44.082Z,6.70
2019-02-12T17:51:10.621Z,8.28
2019-02-12T17:53:37.088Z,7.80
2019-02-12T17:56:03.830Z,7.67
2019-02-12T17:58:30.315Z,7.25
2019-02-12T18:00:56.757Z,9.48
2019-02-12T18:03:23.481Z,8.35
2019-02-12T18:05:50.234Z,7.05
2019-02-12T18:08:16.805Z,7.90
2019-02-12T18:10:43.280Z,7.28
2019-02-12T18:13:10.017Z,7.53
2019-02-12T18:15:36.933Z,7.97
2019-02-12T18:18:03.601Z,8.75
2019-02-12T18:20:30.173Z,8.48
2019-02-12T18:22:56.875Z,8.83
2019-02-12T18:25:23.576Z,9.93
2019-02-12T18:27:50.129Z,9.13
2019-02-12T18:30:17.296Z,9.43
2019-02-12T18:32:43.981Z,9.53
2019-02-12T18:35:10.913Z,9.25
2019-02-12T18:37:37.607Z,9.03
2019-02-12T18:40:09.625Z,9.90
2019-02-12T18:42:36.200Z,9.80
2019-02-12T18:45:05.838Z,8.78
2019-02-12T18:47:32.318Z,8.15
2019-02-12T18:49:58.875Z,9.58
2019-02-12T18:52:25.340Z,8.05
2019-02-12T18:54:51.908Z,8.25
2019-02-12T18:57:18.515Z,7.53
2019-02-12T18:59:45.061Z,7.62
2019-02-12T19:02:11.531Z,7.70
2019-02-12T19:04:37.888Z,8.53
2019-02-12T19:07:04.385Z,8.28
2019-02-12T19:09:30.836Z,10.10
2019-02-12T19:11:57.328Z,8.15
2019-02-12T19:14:23.777Z,7.33
2019-02-12T19:16:50.236Z,8.63
2019-02-12T19:19:16.976Z,8.30
2019-02-12T19:21:43.432Z,16.32
2019-02-12T19:24:09.899Z,10.40
2019-02-12T19:26:36.553Z,8.35
2019-02-12T19:29:03.045Z,8.13
2019-02-12T19:31:29.475Z,8.95
2019-02-12T19:33:55.983Z,8.63
2019-02-12T19:36:22.448Z,7.47
2019-02-12T19:38:49.024Z,8.15
2019-02-12T19:41:15.663Z,9.25
2019-02-12T19:43:42.131Z,9.33
2019-02-12T19:46:08.493Z,8.33
2019-02-12T19:48:34.998Z,8.55
2019-02-12T19:51:01.482Z,8.88
2019-02-12T19:53:28.210Z,8.35
2019-02-12T19:55:54.805Z,8.38
2019-02-12T19:58:21.224Z,7.65
2019-02-12T20:00:47.709Z,7.17
2019-02-12T20:03:14.277Z,7.90
2019-02-12T20:05:40.860Z,8.25
2019-02-12T20:08:07.418Z,8.00
2019-02-12T20:10:34.104Z,7.08
2019-02-12T20:13:00.549Z,6.78
2019-02-12T20:15:27.321Z,7.58
2019-02-12T20:17:53.790Z,8.15
2019-02-12T20:20:20.441Z,8.55
2019-02-12T20:22:47.028Z,7.28
2019-02-12T20:25:13.741Z,7.67
2019-02-12T20:27:40.226Z,7.90
2019-02-12T20:30:13.828Z,7.65
2019-02-12T20:32:40.329Z,8.10
2019-02-12T20:35:09.777Z,8.20
2019-02-12T20:37:36.340Z,6.92
2019-02-12T20:40:05.796Z,7.53
2019-02-12T20:42:32.492Z,7.80
2019-02-12T20:44:59.316Z,7.90
2019-02-12T20:47:25.788Z,7.40
2019-02-12T20:49:52.496Z,6.70
2019-02-12T20:52:19.244Z,7.35
2019-02-12T20:54:45.705Z,7.50
2019-02-12T20:57:15.138Z,6.22
2019-02-12T20:59:40.532Z,7.08
2019-02-12T21:02:07.005Z,8.80
2019-02-12T21:04:33.845Z,8.58
2019-02-12T21:07:00.303Z,8.00
2019-02-12T21:09:26.789Z,7.65
2019-02-12T21:11:53.240Z,6.70
2019-02-12T21:14:19.809Z,8.75
2019-02-12T21:16:46.690Z,6.60
2019-02-12T21:19:13.426Z,7.37
2019-02-12T21:21:39.898Z,8.15
2019-02-12T21:24:06.350Z,7.40
2019-02-12T21:26:33.084Z,7.92
2019-02-12T21:28:59.548Z,7.30
2019-02-12T21:31:25.902Z,7.58
2019-02-12T21:33:52.765Z,8.63
2019-02-12T21:36:19.215Z,7.72
2019-02-12T21:38:45.799Z,7.90
2019-02-12T21:41:12.236Z,8.13
2019-02-12T21:43:38.620Z,7.80
2019-02-12T21:46:05.164Z,7.92
2019-02-12T21:48:31.881Z,8.70
2019-02-12T21:50:58.372Z,8.15
2019-02-12T21:53:25.079Z,7.62
2019-02-12T21:55:51.736Z,9.40
2019-02-12T21:58:18.359Z,8.45
2019-02-12T22:00:45.016Z,8.08
2019-02-12T22:03:11.906Z,8.90
2019-02-12T22:05:38.881Z,8.13
2019-02-12T22:08:05.725Z,9.50
2019-02-12T22:10:32.388Z,9.70
2019-02-12T22:12:59.129Z,8.88
2019-02-12T22:15:26.010Z,9.45
2019-02-12T22:17:52.861Z,7.47
2019-02-12T22:20:21.121Z,9.45
2019-02-12T22:22:47.676Z,7.60
2019-02-12T22:25:14.317Z,9.38
2019-02-12T22:27:40.987Z,10.90
2019-02-12T22:30:10.842Z,9.73
2019-02-12T22:32:37.455Z,9.88
2019-02-12T22:35:04.205Z,8.35
2019-02-12T22:37:30.684Z,8.68
2019-02-12T22:39:57.127Z,9.20
2019-02-12T22:42:23.750Z,9.28
2019-02-12T22:44:50.495Z,9.40
2019-02-12T22:47:17.234Z,8.80
2019-02-12T22:49:43.896Z,9.03
2019-02-12T22:52:10.806Z,9.23
2019-02-12T22:54:38.082Z,9.18
2019-02-12T22:57:04.775Z,9.20
2019-02-12T22:59:31.544Z,9.18
2019-02-12T23:01:58.218Z,9.75
2019-02-12T23:04:24.957Z,8.90
2019-02-12T23:06:51.893Z,9.68
2019-02-12T23:09:18.958Z,8.43
2019-02-12T23:11:45.656Z,9.28
2019-02-12T23:14:12.526Z,8.53
2019-02-12T23:16:39.171Z,9.53
2019-02-12T23:19:05.829Z,9.83
2019-02-12T23:21:32.414Z,9.03
2019-02-12T23:23:59.252Z,8.03
2019-02-12T23:26:25.840Z,8.80
2019-02-12T23:28:52.554Z,9.40
2019-02-12T23:31:19.209Z,9.45
2019-02-12T23:33:46.416Z,9.88
2019-02-12T23:36:13.104Z,8.68
2019-02-12T23:38:39.614Z,9.03
2019-02-12T23:41:06.335Z,8.80
2019-02-12T23:43:33.096Z,9.05
2019-02-12T23:46:00.312Z,11.30
2019-02-12T23:48:27.173Z,9.68
2019-02-12T23:50:53.828Z,8.65
2019-02-12T23:53:20.501Z,9.10
2019-02-12T23:55:47.199Z,9.08
2019-02-12T23:58:14.065Z,7.75
